Flight Information

DEPARTURE
RIVERSIDE, CA
Elevation:
818
Runways:
16/34 - 2850x50 - ASPH-F
H1 - 60x60 - ASPH-G
9/27 - 5401x100 - ASPH-G
ATIS:
128.8 951-688-7257
Ground:
121.7
Tower:
121
DESTINATION
,
Elevation:
TPA:
1000 (est.)


6748.4 NM74° True-14° Var60° HDG

Flight Plan:
(click to file on line)

1. Type
2. Aircraft Identification
3. Aircraft Type / Special Equipment
4. True Airspeed
kts
5. Departure Airport
(ICAO code)
6. Arriving Airport
(ICAO code)
7. Cruising Altitude
ft
8. Alternate Airport
(ICAO code)
9. Route of Flight
10. Remarks


00:00:00 Departure ATIS: Destination ATIS:

Clearance Limit:
Route:
Altitude: Expect in minutes
Frequency:
Transponder: (7500 Hijack / 7600 Lost Comms / 7700 Emergency)


KRAL 010753Z AUTO 00000KT 10SM CLR 16/09 A2988 RMK AO2 SLP106 T01610089 402610100
Time: 2020-04-01T07:53:00Z
1585727912
Winds: calm
Visibility: 10.0 sm
Clouds (AGL): CLR
Temperature: 16.1 C
Dew Point: 8.9 C
Pressure: 29.878937 in Hgbr


Notes:

Data extracted from FAA Digital Chart Supplement. Effective: 0901Z Thursday, Mar 26, 2020 to 0901Z Thursday, May 21, 2020
Current ATIS data is provided courtisy of PilotEdge.